sensor_id;sensor_type;location;lat;lon;timestamp;pressure;altitude;pressure_sealevel;temperature;humidity
49044;BME280;34860;48.066;14.124;2023-10-08T00:01:09;97207.94;;;19.33;43.31
49044;BME280;34860;48.066;14.124;2023-10-08T00:03:59;97210.28;;;19.34;43.32
49044;BME280;34860;48.066;14.124;2023-10-08T00:06:52;97197.25;;;19.37;43.28
49044;BME280;34860;48.066;14.124;2023-10-08T00:09:41;97188.31;;;19.38;43.25
49044;BME280;34860;48.066;14.124;2023-10-08T00:12:28;97198.13;;;19.43;43.31
49044;BME280;34860;48.066;14.124;2023-10-08T00:15:17;97191.25;;;19.44;43.24
49044;BME280;34860;48.066;14.124;2023-10-08T00:18:05;97185.13;;;19.46;43.26
49044;BME280;34860;48.066;14.124;2023-10-08T00:20:53;97188.72;;;19.46;43.23
49044;BME280;34860;48.066;14.124;2023-10-08T00:24:04;97183.88;;;19.47;43.16
49044;BME280;34860;48.066;14.124;2023-10-08T00:26:54;97180.56;;;19.48;43.30
49044;BME280;34860;48.066;14.124;2023-10-08T00:29:42;97166.47;;;19.48;43.29
49044;BME280;34860;48.066;14.124;2023-10-08T00:32:32;97170.06;;;19.49;43.34
49044;BME280;34860;48.066;14.124;2023-10-08T00:35:20;97179.28;;;19.49;43.28
49044;BME280;34860;48.066;14.124;2023-10-08T00:38:08;97172.41;;;19.50;43.12
49044;BME280;34860;48.066;14.124;2023-10-08T00:41:03;97168.00;;;19.49;43.30
49044;BME280;34860;48.066;14.124;2023-10-08T00:43:52;97172.41;;;19.50;43.26
49044;BME280;34860;48.066;14.124;2023-10-08T00:46:43;97171.44;;;19.53;43.11
49044;BME280;34860;48.066;14.124;2023-10-08T00:49:35;97181.72;;;19.56;43.03
49044;BME280;34860;48.066;14.124;2023-10-08T00:52:35;97179.19;;;19.58;43.04
49044;BME280;34860;48.066;14.124;2023-10-08T00:55:29;97180.75;;;19.59;43.01
49044;BME280;34860;48.066;14.124;2023-10-08T00:58:22;97172.09;;;19.63;42.98
49044;BME280;34860;48.066;14.124;2023-10-08T01:01:15;97163.66;;;19.63;43.00
49044;BME280;34860;48.066;14.124;2023-10-08T01:04:03;97178.03;;;19.65;43.06
49044;BME280;34860;48.066;14.124;2023-10-08T01:06:58;97174.72;;;19.67;43.07
49044;BME280;34860;48.066;14.124;2023-10-08T01:09:48;97178.63;;;19.69;42.88
49044;BME280;34860;48.066;14.124;2023-10-08T01:12:37;97169.19;;;19.72;43.08
49044;BME280;34860;48.066;14.124;2023-10-08T01:15:32;97175.88;;;19.75;43.00
49044;BME280;34860;48.066;14.124;2023-10-08T01:18:23;97161.00;;;19.74;42.92
49044;BME280;34860;48.066;14.124;2023-10-08T01:21:17;97165.72;;;19.77;42.96
49044;BME280;34860;48.066;14.124;2023-10-08T01:24:22;97143.91;;;19.78;42.96
49044;BME280;34860;48.066;14.124;2023-10-08T01:27:10;97154.72;;;19.80;43.02
49044;BME280;34860;48.066;14.124;2023-10-08T01:29:59;97146.56;;;19.82;42.97
49044;BME280;34860;48.066;14.124;2023-10-08T01:32:56;97152.19;;;19.82;42.87
49044;BME280;34860;48.066;14.124;2023-10-08T01:35:44;97145.28;;;19.83;42.92
49044;BME280;34860;48.066;14.124;2023-10-08T01:38:32;97150.44;;;19.84;43.06
49044;BME280;34860;48.066;14.124;2023-10-08T01:41:22;97147.13;;;19.86;42.89
49044;BME280;34860;48.066;14.124;2023-10-08T01:44:16;97148.69;;;19.87;42.83
49044;BME280;34860;48.066;14.124;2023-10-08T01:47:04;97155.09;;;19.87;42.94
49044;BME280;34860;48.066;14.124;2023-10-08T01:49:52;97155.88;;;19.88;42.94
49044;BME280;34860;48.066;14.124;2023-10-08T01:52:51;97159.00;;;19.90;42.79
49044;BME280;34860;48.066;14.124;2023-10-08T01:55:39;97158.19;;;19.89;42.75
49044;BME280;34860;48.066;14.124;2023-10-08T01:58:37;97142.84;;;19.90;42.80
49044;BME280;34860;48.066;14.124;2023-10-08T02:01:25;97154.13;;;19.90;42.78
49044;BME280;34860;48.066;14.124;2023-10-08T02:04:14;97145.19;;;19.92;42.87
49044;BME280;34860;48.066;14.124;2023-10-08T02:07:03;97131.34;;;19.94;42.79
49044;BME280;34860;48.066;14.124;2023-10-08T02:09:54;97137.47;;;19.92;42.77
49044;BME280;34860;48.066;14.124;2023-10-08T02:12:42;97135.47;;;19.93;42.69
49044;BME280;34860;48.066;14.124;2023-10-08T02:15:31;97117.72;;;19.92;42.77
49044;BME280;34860;48.066;14.124;2023-10-08T02:18:20;97121.84;;;19.91;42.83
49044;BME280;34860;48.066;14.124;2023-10-08T02:21:10;97127.47;;;19.91;42.82
49044;BME280;34860;48.066;14.124;2023-10-08T02:23:58;97138.47;;;19.89;42.72
49044;BME280;34860;48.066;14.124;2023-10-08T02:26:46;97142.25;;;19.86;42.86
49044;BME280;34860;48.066;14.124;2023-10-08T02:29:34;97141.19;;;19.84;42.95
49044;BME280;34860;48.066;14.124;2023-10-08T02:32:23;97129.81;;;19.78;42.99
49044;BME280;34860;48.066;14.124;2023-10-08T02:35:11;97132.53;;;19.72;42.87
49044;BME280;34860;48.066;14.124;2023-10-08T02:37:59;97138.06;;;19.67;43.06
49044;BME280;34860;48.066;14.124;2023-10-08T02:40:47;97125.25;;;19.66;42.99
49044;BME280;34860;48.066;14.124;2023-10-08T02:43:35;97112.91;;;19.63;42.88
49044;BME280;34860;48.066;14.124;2023-10-08T02:46:25;97113.38;;;19.62;43.14
49044;BME280;34860;48.066;14.124;2023-10-08T02:49:15;97114.63;;;19.60;42.90
49044;BME280;34860;48.066;14.124;2023-10-08T02:52:07;97125.16;;;19.60;43.01
49044;BME280;34860;48.066;14.124;2023-10-08T02:54:55;97120.28;;;19.60;42.93
49044;BME280;34860;48.066;14.124;2023-10-08T02:57:44;97114.63;;;19.60;42.94
49044;BME280;34860;48.066;14.124;2023-10-08T03:00:32;97116.19;;;19.62;42.90
49044;BME280;34860;48.066;14.124;2023-10-08T03:03:21;97125.44;;;19.62;42.95
49044;BME280;34860;48.066;14.124;2023-10-08T03:06:12;97120.59;;;19.63;42.93
49044;BME280;34860;48.066;14.124;2023-10-08T03:09:01;97119.31;;;19.64;42.77
49044;BME280;34860;48.066;14.124;2023-10-08T03:11:51;97118.81;;;19.65;42.78
49044;BME280;34860;48.066;14.124;2023-10-08T03:14:39;97111.91;;;19.66;42.71
49044;BME280;34860;48.066;14.124;2023-10-08T03:17:36;97102.19;;;19.67;42.71
49044;BME280;34860;48.066;14.124;2023-10-08T03:20:35;97106.28;;;19.66;42.77
49044;BME280;34860;48.066;14.124;2023-10-08T03:23:31;97101.13;;;19.65;42.84
49044;BME280;34860;48.066;14.124;2023-10-08T03:26:21;97093.94;;;19.64;42.88
49044;BME280;34860;48.066;14.124;2023-10-08T03:29:21;97096.75;;;19.64;42.86
49044;BME280;34860;48.066;14.124;2023-10-08T03:32:17;97103.19;;;19.64;42.86
49044;BME280;34860;48.066;14.124;2023-10-08T03:35:07;97096.47;;;19.62;42.68
49044;BME280;34860;48.066;14.124;2023-10-08T03:37:57;97104.16;;;19.61;42.87
49044;BME280;34860;48.066;14.124;2023-10-08T03:41:07;97107.47;;;19.59;42.87
49044;BME280;34860;48.066;14.124;2023-10-08T03:44:02;97112.31;;;19.59;42.80
49044;BME280;34860;48.066;14.124;2023-10-08T03:46:52;97105.13;;;19.58;42.77
49044;BME280;34860;48.066;14.124;2023-10-08T03:49:43;97103.56;;;19.57;42.78
49044;BME280;34860;48.066;14.124;2023-10-08T03:52:32;97097.66;;;19.55;42.84
49044;BME280;34860;48.066;14.124;2023-10-08T03:55:23;97101.22;;;19.55;42.85
49044;BME280;34860;48.066;14.124;2023-10-08T03:58:15;97100.94;;;19.53;42.79
49044;BME280;34860;48.066;14.124;2023-10-08T04:01:14;97108.59;;;19.53;42.94
49044;BME280;34860;48.066;14.124;2023-10-08T04:04:05;97105.78;;;19.53;42.97
49044;BME280;34860;48.066;14.124;2023-10-08T04:06:58;97107.06;;;19.52;42.84
49044;BME280;34860;48.066;14.124;2023-10-08T04:10:10;97111.91;;;19.51;43.01
49044;BME280;34860;48.066;14.124;2023-10-08T04:13:37;97104.75;;;19.50;42.86
49044;BME280;34860;48.066;14.124;2023-10-08T04:16:32;97095.00;;;19.51;42.96
49044;BME280;34860;48.066;14.124;2023-10-08T04:19:23;97094.44;;;19.47;43.03
49044;BME280;34860;48.066;14.124;2023-10-08T04:22:13;97095.19;;;19.48;43.00
49044;BME280;34860;48.066;14.124;2023-10-08T04:25:05;97093.66;;;19.47;42.92
49044;BME280;34860;48.066;14.124;2023-10-08T04:27:53;97102.88;;;19.47;43.03
49044;BME280;34860;48.066;14.124;2023-10-08T04:30:46;97104.16;;;19.46;42.96
49044;BME280;34860;48.066;14.124;2023-10-08T04:33:35;97118.25;;;19.46;42.96
49044;BME280;34860;48.066;14.124;2023-10-08T04:36:23;97115.41;;;19.46;42.97
49044;BME280;34860;48.066;14.124;2023-10-08T04:39:11;97103.38;;;19.46;43.01
49044;BME280;34860;48.066;14.124;2023-10-08T04:42:02;97110.25;;;19.45;43.06
49044;BME280;34860;48.066;14.124;2023-10-08T04:44:54;97109.97;;;19.42;43.13
49044;BME280;34860;48.066;14.124;2023-10-08T04:47:43;97108.41;;;19.41;43.07
49044;BME280;34860;48.066;14.124;2023-10-08T04:50:31;97115.34;;;19.40;43.05
49044;BME280;34860;48.066;14.124;2023-10-08T04:53:22;97101.25;;;19.40;43.25
49044;BME280;34860;48.066;14.124;2023-10-08T04:56:17;97106.28;;;19.36;43.10
49044;BME280;34860;48.066;14.124;2023-10-08T04:59:06;97100.38;;;19.34;43.29
49044;BME280;34860;48.066;14.124;2023-10-08T05:01:59;97102.09;;;19.32;43.12
49044;BME280;34860;48.066;14.124;2023-10-08T05:05:07;97101.06;;;19.29;43.29
49044;BME280;34860;48.066;14.124;2023-10-08T05:08:05;97103.56;;;19.27;43.26
49044;BME280;34860;48.066;14.124;2023-10-08T05:11:15;97106.09;;;19.25;43.36
49044;BME280;34860;48.066;14.124;2023-10-08T05:14:11;97105.00;;;19.22;43.30
49044;BME280;34860;48.066;14.124;2023-10-08T05:17:05;97105.81;;;19.23;43.32
49044;BME280;34860;48.066;14.124;2023-10-08T05:19:56;97114.47;;;19.19;43.41
49044;BME280;34860;48.066;14.124;2023-10-08T05:23:07;97111.34;;;19.17;43.35
49044;BME280;34860;48.066;14.124;2023-10-08T05:26:07;97111.81;;;19.16;43.56
49044;BME280;34860;48.066;14.124;2023-10-08T05:29:07;97117.94;;;19.14;43.43
49044;BME280;34860;48.066;14.124;2023-10-08T05:32:09;97120.47;;;19.12;43.36
49044;BME280;34860;48.066;14.124;2023-10-08T05:35:10;97124.53;;;19.11;43.46
49044;BME280;34860;48.066;14.124;2023-10-08T05:38:18;97118.63;;;19.09;43.51
49044;BME280;34860;48.066;14.124;2023-10-08T05:41:21;97122.41;;;19.06;43.34
49044;BME280;34860;48.066;14.124;2023-10-08T05:44:25;97113.66;;;19.04;43.61
49044;BME280;34860;48.066;14.124;2023-10-08T05:47:25;97118.53;;;19.03;43.62
49044;BME280;34860;48.066;14.124;2023-10-08T05:50:46;97131.03;;;19.02;43.43
49044;BME280;34860;48.066;14.124;2023-10-08T05:53:43;97112.88;;;19.03;43.43
49044;BME280;34860;48.066;14.124;2023-10-08T05:56:31;97127.25;;;19.05;43.65
49044;BME280;34860;48.066;14.124;2023-10-08T05:59:28;97119.09;;;19.08;43.45
49044;BME280;34860;48.066;14.124;2023-10-08T06:02:26;97125.31;;;19.12;43.55
49044;BME280;34860;48.066;14.124;2023-10-08T06:05:16;97125.13;;;19.15;43.55
49044;BME280;34860;48.066;14.124;2023-10-08T06:08:10;97145.44;;;19.19;43.55
49044;BME280;34860;48.066;14.124;2023-10-08T06:11:03;97148.84;;;19.23;43.46
49044;BME280;34860;48.066;14.124;2023-10-08T06:13:54;97152.25;;;19.28;43.43
49044;BME280;34860;48.066;14.124;2023-10-08T06:16:46;97163.81;;;19.30;43.27
49044;BME280;34860;48.066;14.124;2023-10-08T06:19:48;97165.19;;;19.34;43.51
49044;BME280;34860;48.066;14.124;2023-10-08T06:22:36;97159.06;;;19.36;43.48
49044;BME280;34860;48.066;14.124;2023-10-08T06:25:25;97149.66;;;19.39;43.39
49044;BME280;34860;48.066;14.124;2023-10-08T06:28:17;97136.13;;;19.43;43.42
49044;BME280;34860;48.066;14.124;2023-10-08T06:31:07;97154.13;;;19.46;43.49
49044;BME280;34860;48.066;14.124;2023-10-08T06:33:58;97156.72;;;19.49;43.50
49044;BME280;34860;48.066;14.124;2023-10-08T06:36:50;97155.00;;;19.52;43.33
49044;BME280;34860;48.066;14.124;2023-10-08T06:39:42;97170.94;;;19.55;43.54
49044;BME280;34860;48.066;14.124;2023-10-08T06:42:35;97190.47;;;19.58;43.56
49044;BME280;34860;48.066;14.124;2023-10-08T06:45:25;97197.97;;;19.62;43.53
49044;BME280;34860;48.066;14.124;2023-10-08T06:48:14;97198.56;;;19.66;43.57
49044;BME280;34860;48.066;14.124;2023-10-08T06:51:09;97189.59;;;19.67;43.60
49044;BME280;34860;48.066;14.124;2023-10-08T06:54:00;97190.66;;;19.70;43.70
49044;BME280;34860;48.066;14.124;2023-10-08T06:56:57;97210.69;;;19.72;43.54
49044;BME280;34860;48.066;14.124;2023-10-08T06:59:49;97215.84;;;19.73;43.67
49044;BME280;34860;48.066;14.124;2023-10-08T07:02:39;97206.13;;;19.74;43.71
49044;BME280;34860;48.066;14.124;2023-10-08T07:05:27;97224.16;;;19.77;43.66
49044;BME280;34860;48.066;14.124;2023-10-08T07:08:16;97220.06;;;19.78;43.81
49044;BME280;34860;48.066;14.124;2023-10-08T07:11:06;97220.06;;;19.78;43.87
49044;BME280;34860;48.066;14.124;2023-10-08T07:13:58;97224.44;;;19.79;43.95
49044;BME280;34860;48.066;14.124;2023-10-08T07:16:46;97232.91;;;19.79;43.89
49044;BME280;34860;48.066;14.124;2023-10-08T07:19:39;97210.34;;;19.79;44.13
49044;BME280;34860;48.066;14.124;2023-10-08T07:22:28;97210.34;;;19.79;44.09
49044;BME280;34860;48.066;14.124;2023-10-08T07:25:17;97211.13;;;19.80;43.98
49044;BME280;34860;48.066;14.124;2023-10-08T07:28:07;97215.22;;;19.78;44.23
49044;BME280;34860;48.066;14.124;2023-10-08T07:30:58;97208.00;;;19.77;44.08
49044;BME280;34860;48.066;14.124;2023-10-08T07:33:50;97218.03;;;19.78;44.28
49044;BME280;34860;48.066;14.124;2023-10-08T07:36:45;97210.84;;;19.77;44.22
49044;BME280;34860;48.066;14.124;2023-10-08T07:39:33;97210.34;;;19.79;44.41
49044;BME280;34860;48.066;14.124;2023-10-08T07:42:22;97212.41;;;19.78;44.45
49044;BME280;34860;48.066;14.124;2023-10-08T07:45:10;97206.75;;;19.78;44.48
49044;BME280;34860;48.066;14.124;2023-10-08T07:48:04;97201.88;;;19.79;44.53
49044;BME280;34860;48.066;14.124;2023-10-08T07:50:57;97196.53;;;19.81;44.55
49044;BME280;34860;48.066;14.124;2023-10-08T07:53:46;97195.00;;;19.80;44.66
49044;BME280;34860;48.066;14.124;2023-10-08T07:56:34;97184.97;;;19.79;44.68
49044;BME280;34860;48.066;14.124;2023-10-08T07:59:24;97179.81;;;19.77;44.58
49044;BME280;34860;48.066;14.124;2023-10-08T08:02:13;97183.88;;;19.76;44.75
49044;BME280;34860;48.066;14.124;2023-10-08T08:05:03;97185.13;;;19.75;44.72
49044;BME280;34860;48.066;14.124;2023-10-08T08:07:51;97187.97;;;19.75;44.71
49044;BME280;34860;48.066;14.124;2023-10-08T08:10:42;97181.53;;;19.75;44.84
49044;BME280;34860;48.066;14.124;2023-10-08T08:13:30;97191.59;;;19.76;44.77
49044;BME280;34860;48.066;14.124;2023-10-08T08:16:18;97189.84;;;19.78;44.96
49044;BME280;34860;48.066;14.124;2023-10-08T08:19:07;97213.47;;;19.81;44.82
49044;BME280;34860;48.066;14.124;2023-10-08T08:21:56;97219.09;;;19.81;44.64
49044;BME280;34860;48.066;14.124;2023-10-08T08:24:49;97207.53;;;19.79;44.72
49044;BME280;34860;48.066;14.124;2023-10-08T08:27:42;97213.16;;;19.79;44.83
49044;BME280;34860;48.066;14.124;2023-10-08T08:30:33;97214.44;;;19.78;44.68
49044;BME280;34860;48.066;14.124;2023-10-08T08:33:26;97205.97;;;19.78;44.71
49044;BME280;34860;48.066;14.124;2023-10-08T08:36:33;97221.81;;;19.75;44.77
49044;BME280;34860;48.066;14.124;2023-10-08T08:39:24;97229.19;;;19.73;44.84
49044;BME280;34860;48.066;14.124;2023-10-08T08:42:21;97235.03;;;19.69;44.79
49044;BME280;34860;48.066;14.124;2023-10-08T08:45:13;97237.53;;;19.67;44.79
49044;BME280;34860;48.066;14.124;2023-10-08T08:48:01;97249.81;;;19.64;44.51
49044;BME280;34860;48.066;14.124;2023-10-08T08:50:49;97258.75;;;19.63;45.01
49044;BME280;34860;48.066;14.124;2023-10-08T08:53:38;97262.22;;;19.57;44.98
49044;BME280;34860;48.066;14.124;2023-10-08T08:56:26;97267.56;;;19.55;44.89
49044;BME280;34860;48.066;14.124;2023-10-08T08:59:16;97271.63;;;19.54;44.95
49044;BME280;34860;48.066;14.124;2023-10-08T09:02:09;97285.44;;;19.52;44.92
49044;BME280;34860;48.066;14.124;2023-10-08T09:05:00;97286.22;;;19.53;45.08
49044;BME280;34860;48.066;14.124;2023-10-08T09:08:01;97287.22;;;19.50;45.04
49044;BME280;34860;48.066;14.124;2023-10-08T09:10:51;97288.16;;;19.47;45.09
49044;BME280;34860;48.066;14.124;2023-10-08T09:13:39;97288.66;;;19.45;45.03
49044;BME280;34860;48.066;14.124;2023-10-08T09:16:27;97304.28;;;19.46;45.33
49044;BME280;34860;48.066;14.124;2023-10-08T09:19:16;97293.50;;;19.45;45.21
49044;BME280;34860;48.066;14.124;2023-10-08T09:22:08;97291.47;;;19.45;45.35
49044;BME280;34860;48.066;14.124;2023-10-08T09:24:57;97296.31;;;19.45;45.44
49044;BME280;34860;48.066;14.124;2023-10-08T09:27:50;97278.16;;;19.46;45.40
49044;BME280;34860;48.066;14.124;2023-10-08T09:30:42;97269.69;;;19.46;45.37
49044;BME280;34860;48.066;14.124;2023-10-08T09:33:32;97255.13;;;19.47;45.59
49044;BME280;34860;48.066;14.124;2023-10-08T09:36:22;97242.59;;;19.48;45.53
49044;BME280;34860;48.066;14.124;2023-10-08T09:39:18;97228.00;;;19.50;45.65
49044;BME280;34860;48.066;14.124;2023-10-08T09:42:11;97236.47;;;19.50;45.73
49044;BME280;34860;48.066;14.124;2023-10-08T09:45:00;97269.00;;;19.51;45.91
49044;BME280;34860;48.066;14.124;2023-10-08T09:47:53;97277.00;;;19.52;45.90
49044;BME280;34860;48.066;14.124;2023-10-08T09:50:43;97282.63;;;19.52;45.79
49044;BME280;34860;48.066;14.124;2023-10-08T09:53:52;97295.16;;;19.51;45.87
49044;BME280;34860;48.066;14.124;2023-10-08T09:56:45;97308.47;;;19.51;45.81
49044;BME280;34860;48.066;14.124;2023-10-08T09:59:34;97313.63;;;19.52;45.88
49044;BME280;34860;48.066;14.124;2023-10-08T10:02:23;97334.16;;;19.53;45.87
49044;BME280;34860;48.066;14.124;2023-10-08T10:05:19;97332.13;;;19.53;45.96
49044;BME280;34860;48.066;14.124;2023-10-08T10:08:08;97342.91;;;19.55;46.04
49044;BME280;34860;48.066;14.124;2023-10-08T10:11:00;97349.63;;;19.57;46.18
49044;BME280;34860;48.066;14.124;2023-10-08T10:13:50;97351.47;;;19.60;46.08
49044;BME280;34860;48.066;14.124;2023-10-08T10:16:39;97348.50;;;19.64;46.20
49044;BME280;34860;48.066;14.124;2023-10-08T10:19:28;97350.03;;;19.65;46.10
49044;BME280;34860;48.066;14.124;2023-10-08T10:22:27;97333.13;;;19.65;46.04
49044;BME280;34860;48.066;14.124;2023-10-08T10:25:16;97350.03;;;19.65;46.06
49044;BME280;34860;48.066;14.124;2023-10-08T10:28:24;97359.78;;;19.64;46.22
49044;BME280;34860;48.066;14.124;2023-10-08T10:31:18;97373.88;;;19.64;46.08
49044;BME280;34860;48.066;14.124;2023-10-08T10:34:07;97363.38;;;19.65;46.26
49044;BME280;34860;48.066;14.124;2023-10-08T10:36:57;97364.13;;;19.65;46.08
49044;BME280;34860;48.066;14.124;2023-10-08T10:39:53;97372.59;;;19.65;46.26
49044;BME280;34860;48.066;14.124;2023-10-08T10:42:47;97375.91;;;19.64;46.25
49044;BME280;34860;48.066;14.124;2023-10-08T10:45:41;97372.78;;;19.62;46.33
49044;BME280;34860;48.066;14.124;2023-10-08T10:48:31;97344.31;;;19.59;46.34
49044;BME280;34860;48.066;14.124;2023-10-08T10:51:21;97328.63;;;19.58;46.30
49044;BME280;34860;48.066;14.124;2023-10-08T10:54:08;97329.41;;;19.59;46.29
49044;BME280;34860;48.066;14.124;2023-10-08T10:56:58;97315.78;;;19.57;46.63
49044;BME280;34860;48.066;14.124;2023-10-08T10:59:51;97313.44;;;19.56;46.78
49044;BME280;34860;48.066;14.124;2023-10-08T11:02:43;97282.91;;;19.54;46.89
49044;BME280;34860;48.066;14.124;2023-10-08T11:05:37;97282.63;;;19.52;46.96
49044;BME280;34860;48.066;14.124;2023-10-08T11:08:30;97277.47;;;19.51;47.10
49044;BME280;34860;48.066;14.124;2023-10-08T11:11:26;97257.44;;;19.49;47.20
49044;BME280;34860;48.066;14.124;2023-10-08T11:14:16;97255.88;;;19.48;47.32
49044;BME280;34860;48.066;14.124;2023-10-08T11:17:10;97248.72;;;19.47;47.32
49044;BME280;34860;48.066;14.124;2023-10-08T11:19:59;97273.28;;;19.46;47.54
49044;BME280;34860;48.066;14.124;2023-10-08T11:22:53;97291.63;;;19.41;47.57
49044;BME280;34860;48.066;14.124;2023-10-08T11:25:52;97291.81;;;19.38;47.47
49044;BME280;34860;48.066;14.124;2023-10-08T11:28:40;97276.69;;;19.35;47.47
49044;BME280;34860;48.066;14.124;2023-10-08T11:31:29;97299.69;;;19.34;47.45
49044;BME280;34860;48.066;14.124;2023-10-08T11:34:20;97334.47;;;19.31;47.51
49044;BME280;34860;48.066;14.124;2023-10-08T11:37:12;97329.63;;;19.31;47.44
49044;BME280;34860;48.066;14.124;2023-10-08T11:40:08;97323.69;;;19.29;47.33
49044;BME280;34860;48.066;14.124;2023-10-08T11:43:04;97319.31;;;19.28;47.37
49044;BME280;34860;48.066;14.124;2023-10-08T11:45:52;97322.13;;;19.28;47.51
49044;BME280;34860;48.066;14.124;2023-10-08T11:48:40;97306.94;;;19.26;47.33
49044;BME280;34860;48.066;14.124;2023-10-08T11:51:34;97304.13;;;19.26;47.51
49044;BME280;34860;48.066;14.124;2023-10-08T11:54:23;97317.91;;;19.23;47.55
49044;BME280;34860;48.066;14.124;2023-10-08T11:57:12;97316.66;;;19.24;47.34
49044;BME280;34860;48.066;14.124;2023-10-08T12:00:00;97315.88;;;19.24;47.49
49044;BME280;34860;48.066;14.124;2023-10-08T12:02:50;97326.38;;;19.23;47.43
49044;BME280;34860;48.066;14.124;2023-10-08T12:05:41;97314.81;;;19.21;47.42
49044;BME280;34860;48.066;14.124;2023-10-08T12:08:34;97322.78;;;19.23;47.49
49044;BME280;34860;48.066;14.124;2023-10-08T12:11:27;97322.78;;;19.23;47.38
49044;BME280;34860;48.066;14.124;2023-10-08T12:14:19;97319.50;;;19.24;47.50
49044;BME280;34860;48.066;14.124;2023-10-08T12:17:07;97330.75;;;19.24;47.48
49044;BME280;34860;48.066;14.124;2023-10-08T12:19:58;97317.44;;;19.25;47.63
49044;BME280;34860;48.066;14.124;2023-10-08T12:22:58;97319.00;;;19.26;47.66
49044;BME280;34860;48.066;14.124;2023-10-08T12:25:46;97323.06;;;19.25;47.46
49044;BME280;34860;48.066;14.124;2023-10-08T12:28:40;97329.47;;;19.26;47.61
49044;BME280;34860;48.066;14.124;2023-10-08T12:31:29;97331.53;;;19.25;47.65
49044;BME280;34860;48.066;14.124;2023-10-08T12:34:17;97319.50;;;19.24;47.62
49044;BME280;34860;48.066;14.124;2023-10-08T12:37:05;97322.31;;;19.24;47.69
49044;BME280;34860;48.066;14.124;2023-10-08T12:39:54;97322.31;;;19.24;47.68
49044;BME280;34860;48.066;14.124;2023-10-08T12:42:46;97309.47;;;19.23;47.82
49044;BME280;34860;48.066;14.124;2023-10-08T12:45:36;97304.59;;;19.24;47.69
49044;BME280;34860;48.066;14.124;2023-10-08T12:48:25;97299.75;;;19.24;47.80
49044;BME280;34860;48.066;14.124;2023-10-08T12:51:15;97305.41;;;19.24;47.84
49044;BME280;34860;48.066;14.124;2023-10-08T12:54:03;97302.56;;;19.24;47.72
49044;BME280;34860;48.066;14.124;2023-10-08T12:56:53;97313.06;;;19.24;47.68
49044;BME280;34860;48.066;14.124;2023-10-08T12:59:47;97317.44;;;19.25;47.68
49044;BME280;34860;48.066;14.124;2023-10-08T13:02:39;97312.56;;;19.26;47.81
49044;BME280;34860;48.066;14.124;2023-10-08T13:05:28;97306.94;;;19.26;47.69
49044;BME280;34860;48.066;14.124;2023-10-08T13:08:17;97318.22;;;19.26;47.82
49044;BME280;34860;48.066;14.124;2023-10-08T13:11:06;97335.13;;;19.26;47.73
49044;BME280;34860;48.066;14.124;2023-10-08T13:13:55;97324.31;;;19.24;47.84
49044;BME280;34860;48.066;14.124;2023-10-08T13:16:44;97339.97;;;19.25;47.79
49044;BME280;34860;48.066;14.124;2023-10-08T13:19:33;97334.34;;;19.25;47.94
49044;BME280;34860;48.066;14.124;2023-10-08T13:22:21;97335.91;;;19.26;47.96
49044;BME280;34860;48.066;14.124;2023-10-08T13:25:10;97337.94;;;19.26;48.00
49044;BME280;34860;48.066;14.124;2023-10-08T13:27:59;97331.06;;;19.27;47.99
49044;BME280;34860;48.066;14.124;2023-10-08T13:30:48;97331.81;;;19.27;47.93
49044;BME280;34860;48.066;14.124;2023-10-08T13:33:40;97327.00;;;19.28;47.82
49044;BME280;34860;48.066;14.124;2023-10-08T13:36:32;97336.22;;;19.28;47.84
49044;BME280;34860;48.066;14.124;2023-10-08T13:39:20;97334.16;;;19.29;48.02
49044;BME280;34860;48.066;14.124;2023-10-08T13:42:08;97330.38;;;19.32;47.98
49044;BME280;34860;48.066;14.124;2023-10-08T13:45:03;97326.31;;;19.33;47.89
49044;BME280;34860;48.066;14.124;2023-10-08T13:47:54;97341.19;;;19.33;47.89
49044;BME280;34860;48.066;14.124;2023-10-08T13:50:43;97338.84;;;19.32;47.92
49044;BME280;34860;48.066;14.124;2023-10-08T13:53:33;97344.78;;;19.34;47.95
49044;BME280;34860;48.066;14.124;2023-10-08T13:56:23;97358.56;;;19.32;47.99
49044;BME280;34860;48.066;14.124;2023-10-08T13:59:13;97359.38;;;19.32;47.99
49044;BME280;34860;48.066;14.124;2023-10-08T14:02:02;97352.16;;;19.31;47.86
49044;BME280;34860;48.066;14.124;2023-10-08T14:05:00;97352.16;;;19.31;48.07
49044;BME280;34860;48.066;14.124;2023-10-08T14:07:55;97356.56;;;19.32;47.85
49044;BME280;34860;48.066;14.124;2023-10-08T14:10:46;97350.91;;;19.32;48.13
49044;BME280;34860;48.066;14.124;2023-10-08T14:13:35;97348.88;;;19.33;47.92
49044;BME280;34860;48.066;14.124;2023-10-08T14:16:24;97348.56;;;19.31;48.06
49044;BME280;34860;48.066;14.124;2023-10-08T14:19:15;97352.16;;;19.31;48.10
49044;BME280;34860;48.066;14.124;2023-10-08T14:22:03;97339.31;;;19.30;48.08
49044;BME280;34860;48.066;14.124;2023-10-08T14:24:54;97333.19;;;19.32;48.20
49044;BME280;34860;48.066;14.124;2023-10-08T14:27:47;97336.03;;;19.32;48.11
49044;BME280;34860;48.066;14.124;2023-10-08T14:30:39;97348.09;;;19.32;48.08
49044;BME280;34860;48.066;14.124;2023-10-08T14:33:28;97352.44;;;19.33;48.21
49044;BME280;34860;48.066;14.124;2023-10-08T14:36:19;97353.25;;;19.34;48.09
49044;BME280;34860;48.066;14.124;2023-10-08T14:39:24;97361.72;;;19.34;48.18
49044;BME280;34860;48.066;14.124;2023-10-08T14:42:29;97360.44;;;19.35;48.25
49044;BME280;34860;48.066;14.124;2023-10-08T14:45:36;97363.72;;;19.33;48.15
49044;BME280;34860;48.066;14.124;2023-10-08T14:48:27;97367.34;;;19.34;48.24
49044;BME280;34860;48.066;14.124;2023-10-08T14:51:16;97361.22;;;19.35;48.18
49044;BME280;34860;48.066;14.124;2023-10-08T14:54:06;97357.13;;;19.36;48.19
49044;BME280;34860;48.066;14.124;2023-10-08T14:56:54;97359.94;;;19.36;48.19
49044;BME280;34860;48.066;14.124;2023-10-08T14:59:43;97362.78;;;19.36;48.24